Time;durP1;ratioP1;P1;durP2;ratioP2;P2;SDS_P1;SDS_P2;PMS_P1;PMS_P2;Temp;Humidity;BMP_temperature;BMP_pressure;BME280_temperature;BME280_humidity;BME280_pressure;Samples;Min_cycle;Max_cycle;Signal;HPM_P1;HPM_P2
2021/05/12 00:01:43;;;;;;;7.03;6.60;;;;;;;21.23;47.61;100097.34;5007477;28;20576;-74
2021/05/12 00:04:08;;;;;;;8.55;7.15;;;;;;;21.14;47.78;100095.25;5029104;28;20037;-75
2021/05/12 00:06:34;;;;;;;8.85;7.72;;;;;;;21.17;47.77;100099.53;5004393;28;20400;-73
2021/05/12 00:08:59;;;;;;;8.15;7.35;;;;;;;21.20;47.74;100089.56;5010413;28;20044;-74
2021/05/12 00:11:25;;;;;;;7.97;7.30;;;;;;;21.14;47.79;100092.59;5012642;28;20135;-73
2021/05/12 00:13:51;;;;;;;8.05;7.45;;;;;;;21.13;47.72;100085.56;5017351;28;20071;-73
2021/05/12 00:16:17;;;;;;;7.95;7.20;;;;;;;21.11;47.72;100080.34;4999967;28;20517;-74
2021/05/12 00:18:45;;;;;;;7.47;6.97;;;;;;;21.07;47.89;100096.63;5022721;28;20052;-74
2021/05/12 00:21:15;;;;;;;7.95;7.25;;;;;;;21.03;48.01;100103.03;5001134;28;20437;-74
2021/05/12 00:23:46;;;;;;;9.50;8.60;;;;;;;21.08;47.78;100093.84;5014721;28;20405;-73
2021/05/12 00:26:11;;;;;;;8.98;8.10;;;;;;;21.19;47.40;100093.16;5005966;28;20033;-73
2021/05/12 00:28:37;;;;;;;8.95;8.15;;;;;;;21.10;47.50;100102.56;5029410;28;20900;-74
2021/05/12 00:31:02;;;;;;;9.20;8.30;;;;;;;21.11;47.70;100106.13;5014580;28;20614;-75
2021/05/12 00:33:28;;;;;;;8.57;7.78;;;;;;;21.12;47.58;100108.69;5006949;28;20120;-75
2021/05/12 00:35:53;;;;;;;9.68;8.00;;;;;;;21.08;47.45;100115.13;5016818;28;20056;-74
2021/05/12 00:38:19;;;;;;;8.57;7.78;;;;;;;21.09;47.67;100110.66;5004280;28;20122;-73
2021/05/12 00:40:44;;;;;;;9.23;8.43;;;;;;;21.20;47.16;100113.53;5017432;28;20040;-74
2021/05/12 00:43:10;;;;;;;9.55;8.55;;;;;;;21.09;47.31;100111.53;5011616;28;20049;-73
2021/05/12 00:45:35;;;;;;;9.45;8.52;;;;;;;21.15;47.23;100118.28;5006794;28;20703;-73
2021/05/12 00:48:01;;;;;;;10.07;8.57;;;;;;;21.04;47.38;100115.41;5028937;28;20065;-74
2021/05/12 00:50:29;;;;;;;9.85;8.95;;;;;;;21.11;47.56;100112.28;5003488;28;20160;-74
2021/05/12 00:52:55;;;;;;;9.70;8.63;;;;;;;21.21;46.94;100112.56;5006835;28;20433;-75
2021/05/12 00:55:21;;;;;;;9.90;7.93;;;;;;;21.29;46.79;100118.28;5030850;28;20353;-74
2021/05/12 00:57:48;;;;;;;8.90;8.20;;;;;;;21.30;46.55;100117.31;5023590;28;20799;-74
2021/05/12 01:00:18;;;;;;;9.95;8.95;;;;;;;21.27;46.93;100114.84;4996021;28;20049;-73
2021/05/12 01:02:44;;;;;;;8.82;8.13;;;;;;;21.10;47.35;100118.53;5013710;28;20076;-74
2021/05/12 01:05:41;;;;;;;9.75;8.88;;;;;;;21.10;47.18;100110.56;5005150;28;20514;-74
2021/05/12 01:08:07;;;;;;;10.20;9.02;;;;;;;20.96;47.38;100108.78;5029189;28;20049;-74
2021/05/12 01:10:34;;;;;;;9.52;8.73;;;;;;;21.06;47.33;100100.22;5007128;28;20044;-74
2021/05/12 01:13:00;;;;;;;9.63;8.73;;;;;;;21.04;47.17;100102.97;5027302;28;20043;-74
2021/05/12 01:15:26;;;;;;;9.77;8.88;;;;;;;21.01;47.29;100097.81;5011135;28;20041;-73
2021/05/12 01:17:52;;;;;;;9.57;8.70;;;;;;;21.06;46.95;100106.38;5000949;28;20049;-73
2021/05/12 01:20:18;;;;;;;10.45;9.38;;;;;;;21.06;47.05;100097.56;5003407;28;20273;-74
2021/05/12 01:22:45;;;;;;;9.65;8.80;;;;;;;21.03;47.31;100098.59;4996103;28;20474;-75
2021/05/12 01:25:11;;;;;;;9.93;9.13;;;;;;;21.08;47.04;100099.16;5013714;28;20046;-73
2021/05/12 01:27:37;;;;;;;10.60;9.68;;;;;;;21.08;47.10;100101.84;5014930;28;20150;-75
2021/05/12 01:30:05;;;;;;;12.38;10.00;;;;;;;20.87;47.52;100096.03;5008513;28;20034;-73
2021/05/12 01:32:35;;;;;;;10.00;8.93;;;;;;;20.95;47.33;100106.19;5013647;28;20676;-74
2021/05/12 01:35:10;;;;;;;11.60;10.02;;;;;;;20.79;47.73;100099.16;5014451;28;20040;-75
2021/05/12 01:37:36;;;;;;;10.27;9.20;;;;;;;20.74;47.74;100101.25;5021583;28;20047;-73
2021/05/12 01:40:08;;;;;;;9.90;9.02;;;;;;;20.70;48.02;100099.69;5011598;28;20068;-75
2021/05/12 01:42:34;;;;;;;10.52;9.73;;;;;;;20.58;48.15;100097.75;5021524;28;20041;-74
2021/05/12 01:45:09;;;;;;;10.43;9.27;;;;;;;20.55;48.32;100100.59;5030859;28;20045;-74
2021/05/12 01:47:35;;;;;;;8.55;7.78;;;;;;;20.49;48.48;100102.66;5013450;28;20656;-74
2021/05/12 01:50:08;;;;;;;10.38;9.48;;;;;;;20.53;48.27;100090.03;5005984;28;20061;-74
2021/05/12 01:52:44;;;;;;;10.05;8.77;;;;;;;20.49;48.44;100093.81;5012515;28;20135;-73
2021/05/12 01:55:12;;;;;;;10.50;9.52;;;;;;;20.49;48.21;100094.69;5006595;28;20112;-74
2021/05/12 01:57:43;;;;;;;11.10;9.77;;;;;;;20.57;48.00;100096.91;5001167;28;20285;-75
2021/05/12 02:00:30;;;;;;;10.48;9.48;;;;;;;20.55;48.03;100104.09;5017740;28;20451;-74
2021/05/12 02:02:56;;;;;;;10.25;9.27;;;;;;;20.52;48.14;100111.41;5010471;28;20471;-73
2021/05/12 02:05:25;;;;;;;11.07;9.55;;;;;;;20.50;48.12;100100.84;5012514;28;20159;-73
2021/05/12 02:07:52;;;;;;;10.80;9.82;;;;;;;20.58;48.07;100098.59;5011280;28;20316;-73
2021/05/12 02:10:18;;;;;;;12.70;9.65;;;;;;;20.64;47.85;100103.53;5013003;28;20574;-73
2021/05/12 02:12:44;;;;;;;9.88;8.95;;;;;;;20.61;47.81;100113.50;5017628;28;20164;-74
2021/05/12 02:15:12;;;;;;;9.52;8.65;;;;;;;20.63;47.92;100107.16;5007177;28;20041;-74
2021/05/12 02:17:38;;;;;;;11.07;9.57;;;;;;;20.69;47.67;100123.69;5025802;28;20601;-73
2021/05/12 02:20:06;;;;;;;10.05;9.05;;;;;;;20.63;47.85;100128.41;5012561;28;20041;-73
2021/05/12 02:22:32;;;;;;;9.95;8.95;;;;;;;20.68;47.90;100125.50;5021301;28;20326;-73
2021/05/12 02:24:58;;;;;;;9.45;8.50;;;;;;;20.71;47.51;100117.34;5001013;28;20047;-74
2021/05/12 02:27:23;;;;;;;9.63;8.38;;;;;;;20.77;47.15;100127.63;5003439;28;21963;-73
2021/05/12 02:29:48;;;;;;;8.30;7.50;;;;;;;20.78;47.30;100129.34;5012223;28;20463;-73
2021/05/12 02:32:14;;;;;;;9.65;8.73;;;;;;;20.70;47.36;100120.97;5011547;28;20343;-73
2021/05/12 02:34:39;;;;;;;9.75;8.90;;;;;;;20.70;47.72;100128.09;5009446;28;20041;-73
2021/05/12 02:37:05;;;;;;;10.05;9.18;;;;;;;20.57;48.18;100125.28;5013282;28;20045;-74
2021/05/12 02:39:31;;;;;;;9.27;8.48;;;;;;;20.61;47.70;100121.47;5015838;28;23134;-73
2021/05/12 02:41:57;;;;;;;9.40;8.60;;;;;;;20.55;47.76;100127.19;5006044;28;20460;-74
2021/05/12 02:44:23;;;;;;;8.85;8.15;;;;;;;20.64;47.67;100121.31;5018075;28;20037;-73
2021/05/12 02:46:49;;;;;;;8.65;7.93;;;;;;;20.57;47.84;100126.16;4999751;28;20103;-73
2021/05/12 02:49:14;;;;;;;8.98;8.07;;;;;;;20.59;47.77;100118.91;5018245;28;20045;-73
2021/05/12 02:51:40;;;;;;;10.32;9.32;;;;;;;20.52;48.03;100122.91;5015738;28;20509;-74
2021/05/12 02:54:06;;;;;;;9.40;8.50;;;;;;;20.58;47.78;100122.53;5013834;28;21407;-74
2021/05/12 02:56:32;;;;;;;9.48;8.50;;;;;;;20.59;47.64;100126.06;4999032;28;20041;-73
2021/05/12 02:58:58;;;;;;;9.05;7.88;;;;;;;20.49;47.99;100121.28;5016198;28;20099;-73
2021/05/12 03:01:23;;;;;;;9.13;8.32;;;;;;;20.67;47.47;100121.97;5011591;28;20040;-74
2021/05/12 03:03:49;;;;;;;10.07;9.07;;;;;;;20.55;47.67;100130.69;5001436;28;20459;-73
2021/05/12 03:06:16;;;;;;;12.68;8.35;;;;;;;20.56;47.52;100128.88;5017221;28;20693;-72
2021/05/12 03:08:42;;;;;;;9.75;8.75;;;;;;;20.41;48.08;100133.31;4996946;28;20118;-72
2021/05/12 03:11:07;;;;;;;9.15;8.32;;;;;;;20.56;47.83;100126.22;5033699;28;20485;-72
2021/05/12 03:13:34;;;;;;;10.10;8.30;;;;;;;20.59;47.47;100131.38;5019797;28;20052;-72
2021/05/12 03:16:00;;;;;;;11.10;8.38;;;;;;;20.50;47.87;100125.63;5020170;28;20041;-72
2021/05/12 03:18:26;;;;;;;11.48;9.02;;;;;;;20.56;47.35;100128.88;5021800;28;20045;-72
2021/05/12 03:20:54;;;;;;;9.35;8.35;;;;;;;20.44;47.70;100131.34;5016550;28;20680;-74
2021/05/12 03:23:19;;;;;;;9.23;8.43;;;;;;;20.51;47.64;100126.50;5021905;28;20261;-72
2021/05/12 03:25:45;;;;;;;9.23;8.23;;;;;;;20.49;47.54;100133.69;5013266;28;20071;-72
2021/05/12 03:28:11;;;;;;;9.90;8.90;;;;;;;20.48;47.54;100129.31;5003158;28;20116;-72
2021/05/12 03:30:38;;;;;;;9.95;8.93;;;;;;;20.49;47.58;100137.25;5021374;28;20530;-72
2021/05/12 03:33:08;;;;;;;9.85;8.75;;;;;;;20.33;47.96;100142.56;5010415;28;20116;-71
2021/05/12 03:35:38;;;;;;;10.50;9.60;;;;;;;20.33;48.26;100141.72;5020712;28;20041;-72
2021/05/12 03:38:05;;;;;;;10.68;8.63;;;;;;;20.26;48.22;100143.00;5014991;28;20438;-72
2021/05/12 03:40:31;;;;;;;11.23;10.15;;;;;;;20.37;47.73;100143.25;5016738;28;20190;-72
2021/05/12 03:42:58;;;;;;;11.18;10.05;;;;;;;20.52;47.55;100146.84;5018668;28;20057;-73
2021/05/12 03:45:25;;;;;;;10.55;9.45;;;;;;;20.46;47.45;100144.53;5013036;28;20081;-72
2021/05/12 03:47:51;;;;;;;10.73;9.63;;;;;;;20.44;47.52;100149.94;5016152;28;20491;-71
2021/05/12 03:50:18;;;;;;;10.45;9.50;;;;;;;20.30;47.85;100144.56;5032579;28;20507;-72
2021/05/12 03:52:44;;;;;;;10.15;9.15;;;;;;;20.26;48.17;100143.00;5017984;28;20754;-73
2021/05/12 03:55:10;;;;;;;13.10;9.93;;;;;;;20.35;47.88;100149.59;5023770;28;20439;-71
2021/05/12 03:57:36;;;;;;;11.10;10.00;;;;;;;20.43;47.65;100145.56;5028746;28;20068;-72
2021/05/12 04:00:06;;;;;;;11.65;10.65;;;;;;;20.41;47.84;100158.06;5009005;28;20142;-73
2021/05/12 04:02:32;;;;;;;13.57;11.98;;;;;;;20.07;48.47;100157.34;5024324;28;20930;-73
2021/05/12 04:04:58;;;;;;;12.93;11.63;;;;;;;20.00;48.85;100163.97;5020929;28;20052;-72
2021/05/12 04:07:24;;;;;;;14.30;12.88;;;;;;;19.82;49.59;100160.53;5019563;28;20040;-72
2021/05/12 04:09:49;;;;;;;15.10;12.25;;;;;;;19.91;49.15;100165.34;5023752;28;20382;-73
2021/05/12 04:12:15;;;;;;;15.00;12.52;;;;;;;19.82;49.54;100169.34;5011613;28;20057;-72
2021/05/12 04:14:41;;;;;;;16.23;13.57;;;;;;;20.03;49.00;100170.91;5022053;28;20041;-72
2021/05/12 04:17:06;;;;;;;13.40;12.05;;;;;;;19.88;49.35;100170.84;5007713;28;20041;-72
2021/05/12 04:19:32;;;;;;;16.30;12.90;;;;;;;19.99;49.21;100173.72;5015188;28;20041;-72
2021/05/12 04:21:58;;;;;;;17.83;13.25;;;;;;;19.81;49.61;100172.06;5018501;28;22605;-73
2021/05/12 04:24:24;;;;;;;16.88;14.13;;;;;;;19.74;50.03;100168.06;5015534;28;20803;-73
2021/05/12 04:26:51;;;;;;;16.85;14.93;;;;;;;19.74;49.51;100158.28;5016893;28;20037;-73
2021/05/12 04:29:16;;;;;;;20.00;13.95;;;;;;;19.71;49.99;100166.44;5015716;28;20056;-72
2021/05/12 04:31:42;;;;;;;19.55;14.52;;;;;;;19.72;49.99;100161.97;5010561;28;20136;-73
2021/05/12 04:34:08;;;;;;;17.67;15.20;;;;;;;19.77;49.84;100166.06;5019003;28;20052;-74
2021/05/12 04:36:34;;;;;;;20.70;16.50;;;;;;;19.76;50.30;100172.31;5004220;28;20607;-73
2021/05/12 04:39:00;;;;;;;21.90;15.80;;;;;;;19.85;49.66;100164.81;5021462;28;20497;-73
2021/05/12 04:41:26;;;;;;;18.35;16.23;;;;;;;19.84;49.80;100171.91;5020868;28;20068;-73
2021/05/12 04:43:54;;;;;;;22.40;17.50;;;;;;;19.60;50.41;100177.59;5023867;28;20156;-73
2021/05/12 04:46:21;;;;;;;22.10;18.13;;;;;;;19.65;50.20;100172.91;5022279;28;20060;-73
2021/05/12 04:48:47;;;;;;;22.67;17.58;;;;;;;19.71;50.26;100182.34;5028326;28;20041;-73
2021/05/12 04:51:13;;;;;;;24.45;17.63;;;;;;;19.73;49.85;100182.25;5031703;28;20041;-74
2021/05/12 04:53:38;;;;;;;22.80;17.00;;;;;;;19.65;50.20;100188.84;5017029;28;20075;-73
2021/05/12 04:56:04;;;;;;;21.05;17.40;;;;;;;19.72;50.10;100185.84;5010992;28;20071;-73
2021/05/12 04:58:30;;;;;;;21.90;18.80;;;;;;;19.64;50.26;100186.28;5013958;28;20037;-73
2021/05/12 05:00:56;;;;;;;22.73;17.38;;;;;;;19.79;49.90;100184.56;5017408;28;20035;-73
2021/05/12 05:03:22;;;;;;;20.60;17.60;;;;;;;19.71;50.27;100190.31;5009699;28;20045;-73
2021/05/12 05:05:47;;;;;;;20.50;15.60;;;;;;;19.50;50.34;100193.19;5031438;28;20069;-73
2021/05/12 05:08:14;;;;;;;22.05;18.67;;;;;;;19.51;50.29;100197.53;5010642;28;20061;-73
2021/05/12 05:10:40;;;;;;;19.33;16.85;;;;;;;19.58;50.28;100205.19;5013545;28;20041;-73
2021/05/12 05:13:06;;;;;;;22.23;18.58;;;;;;;19.83;49.54;100200.28;5018832;28;20672;-72
2021/05/12 05:15:33;;;;;;;20.27;17.50;;;;;;;19.63;50.24;100211.09;5009384;28;20041;-73
2021/05/12 05:17:58;;;;;;;22.13;18.48;;;;;;;19.63;50.09;100208.44;5013776;28;20045;-73
2021/05/12 05:20:26;;;;;;;21.45;16.98;;;;;;;19.58;50.16;100211.38;5002557;28;20044;-73
2021/05/12 05:22:52;;;;;;;22.60;17.77;;;;;;;19.61;49.99;100210.34;5008704;28;20037;-72
2021/05/12 05:25:18;;;;;;;22.20;18.33;;;;;;;19.72;49.71;100223.03;5012637;28;20037;-72
2021/05/12 05:27:44;;;;;;;24.30;19.67;;;;;;;19.77;49.61;100211.22;5014844;28;20053;-71
2021/05/12 05:30:10;;;;;;;21.38;18.38;;;;;;;19.70;49.72;100209.84;5014532;28;20045;-73
2021/05/12 05:32:36;;;;;;;25.42;21.73;;;;;;;19.89;49.35;100220.34;5012780;28;20103;-74
2021/05/12 05:35:03;;;;;;;21.35;18.77;;;;;;;19.76;49.34;100217.47;5010771;28;20049;-73
2021/05/12 05:37:28;;;;;;;22.38;19.98;;;;;;;19.56;50.20;100223.00;5003781;28;20056;-75
2021/05/12 05:39:56;;;;;;;24.27;19.42;;;;;;;19.64;49.84;100224.28;5020709;28;20131;-73
2021/05/12 05:42:22;;;;;;;24.05;20.42;;;;;;;19.68;49.61;100227.66;5007966;28;20056;-71
2021/05/12 05:44:48;;;;;;;26.08;21.20;;;;;;;19.63;49.72;100227.03;5004659;28;20935;-72
2021/05/12 05:47:14;;;;;;;21.15;18.23;;;;;;;19.60;49.88;100224.56;5013969;28;20053;-75
2021/05/12 05:49:39;;;;;;;22.92;18.63;;;;;;;19.78;49.14;100220.91;5013648;28;20041;-71
2021/05/12 05:52:05;;;;;;;23.83;21.23;;;;;;;19.85;49.22;100215.28;5028620;28;23122;-72
2021/05/12 05:54:31;;;;;;;20.13;17.80;;;;;;;19.56;49.76;100221.19;5007464;28;20056;-73
2021/05/12 05:57:03;;;;;;;21.92;19.55;;;;;;;19.59;49.51;100217.53;5028611;28;20045;-74
2021/05/12 05:59:29;;;;;;;22.45;17.38;;;;;;;19.55;49.80;100232.75;5015449;28;20048;-72
2021/05/12 06:01:56;;;;;;;19.00;16.27;;;;;;;19.72;49.00;100225.69;5013164;28;20048;-77
2021/05/12 06:04:23;;;;;;;21.83;16.95;;;;;;;19.63;49.49;100238.53;5029426;28;20818;-73
2021/05/12 06:06:49;;;;;;;18.63;16.58;;;;;;;19.50;49.45;100237.44;4991927;28;20087;-72
2021/05/12 06:09:15;;;;;;;18.92;16.88;;;;;;;19.66;49.54;100238.34;4994314;28;20129;-73
2021/05/12 06:11:40;;;;;;;19.70;15.00;;;;;;;19.75;49.32;100231.69;5028237;28;20052;-73
2021/05/12 06:14:06;;;;;;;18.20;16.10;;;;;;;20.09;48.41;100231.66;5004865;28;20042;-75
2021/05/12 06:16:32;;;;;;;16.80;14.70;;;;;;;19.86;49.09;100230.28;5009954;28;20068;-73
2021/05/12 06:18:57;;;;;;;17.40;14.52;;;;;;;19.96;48.80;100235.00;5020431;28;20040;-73
2021/05/12 06:21:25;;;;;;;16.25;14.45;;;;;;;19.91;49.04;100218.47;5011718;28;21578;-73
2021/05/12 06:23:50;;;;;;;16.25;13.75;;;;;;;20.10;48.42;100233.38;5014057;28;20128;-74
2021/05/12 06:26:17;;;;;;;15.43;13.85;;;;;;;20.11;48.67;100232.44;5013057;28;20044;-74
2021/05/12 06:28:44;;;;;;;15.82;14.13;;;;;;;19.78;49.56;100242.16;5011390;28;20041;-75
2021/05/12 06:31:10;;;;;;;15.75;14.05;;;;;;;19.77;49.39;100244.88;5014651;28;20045;-76
2021/05/12 06:33:38;;;;;;;14.98;13.43;;;;;;;19.75;49.67;100244.97;5006622;28;21141;-75
2021/05/12 06:36:05;;;;;;;14.52;11.65;;;;;;;19.80;49.32;100250.91;5018239;28;20037;-75
2021/05/12 06:38:31;;;;;;;13.50;12.10;;;;;;;20.00;48.82;100251.66;5005067;28;20482;-76
2021/05/12 06:40:56;;;;;;;13.27;12.02;;;;;;;19.76;49.21;100259.09;5002966;28;20037;-76
2021/05/12 06:43:22;;;;;;;13.68;11.10;;;;;;;19.79;48.99;100265.13;5011793;28;20835;-75
2021/05/12 06:45:47;;;;;;;12.45;11.18;;;;;;;19.97;48.57;100250.00;5014740;28;20411;-73
2021/05/12 06:48:13;;;;;;;11.85;10.63;;;;;;;19.96;48.30;100260.72;5011735;28;20065;-78
2021/05/12 06:50:39;;;;;;;11.23;10.15;;;;;;;19.73;49.14;100267.25;5013320;28;20133;-75
2021/05/12 06:53:04;;;;;;;11.85;9.48;;;;;;;19.84;49.04;100275.50;5014409;28;20443;-78
2021/05/12 06:55:30;;;;;;;10.63;9.52;;;;;;;20.15;48.40;100271.19;5032712;28;20285;-80
2021/05/12 06:57:55;;;;;;;10.27;9.25;;;;;;;20.03;48.46;100283.34;5013768;28;20163;-81
2021/05/12 07:00:22;;;;;;;9.82;8.85;;;;;;;20.20;47.97;100274.44;5016547;28;20037;-76
2021/05/12 07:02:47;;;;;;;9.00;8.10;;;;;;;20.15;47.91;100280.03;5028965;28;20075;-78
2021/05/12 07:05:15;;;;;;;9.95;8.95;;;;;;;20.12;47.75;100274.03;5009643;28;20053;-79
2021/05/12 07:07:44;;;;;;;8.75;8.05;;;;;;;20.04;47.84;100278.88;5029044;28;20051;-78
2021/05/12 07:10:11;;;;;;;10.02;8.98;;;;;;;20.21;47.42;100273.50;5006595;28;20518;-76
2021/05/12 07:12:37;;;;;;;9.77;8.75;;;;;;;20.06;47.60;100283.16;5012553;28;20053;-76
2021/05/12 07:15:06;;;;;;;8.95;8.13;;;;;;;19.94;48.43;100289.16;5011872;28;20600;-77
2021/05/12 07:17:31;;;;;;;9.52;8.73;;;;;;;19.86;48.31;100291.38;5021839;28;20053;-77
2021/05/12 07:19:57;;;;;;;9.23;8.30;;;;;;;19.48;49.27;100293.28;5008947;28;20113;-75
2021/05/12 07:22:24;;;;;;;7.88;7.18;;;;;;;19.54;49.37;100299.22;5005941;28;20065;-74
2021/05/12 07:24:50;;;;;;;10.43;7.75;;;;;;;19.79;48.45;100304.94;4968931;28;20042;-77
2021/05/12 07:27:22;;;;;;;8.02;7.10;;;;;;;19.90;48.38;100308.88;4991716;28;20050;-75
2021/05/12 07:29:49;;;;;;;9.60;7.95;;;;;;;20.19;47.69;100315.25;4984525;28;24123;-75
2021/05/12 07:32:15;;;;;;;9.90;7.85;;;;;;;20.11;47.99;100314.81;4995553;28;20058;-78
2021/05/12 07:34:41;;;;;;;8.80;7.90;;;;;;;19.26;49.81;100314.75;5011219;28;20068;-76
2021/05/12 07:37:07;;;;;;;9.15;7.95;;;;;;;17.84;54.45;100310.81;4987826;28;20052;-78
2021/05/12 07:39:33;;;;;;;9.30;7.75;;;;;;;17.64;55.18;100319.66;5000213;28;20034;-74
2021/05/12 07:42:02;;;;;;;10.10;8.55;;;;;;;17.62;55.69;100324.16;4995808;28;20131;-72
2021/05/12 07:44:29;;;;;;;8.20;7.32;;;;;;;17.68;55.16;100323.88;5001233;28;20046;-71
2021/05/12 07:46:55;;;;;;;10.02;8.75;;;;;;;17.61;55.64;100330.38;5000989;28;22390;-72
2021/05/12 07:49:21;;;;;;;10.02;7.90;;;;;;;17.63;55.73;100324.06;4991563;28;20096;-72
2021/05/12 07:51:46;;;;;;;8.18;7.43;;;;;;;17.62;55.69;100324.16;5008406;28;20049;-73
2021/05/12 07:54:12;;;;;;;7.28;6.57;;;;;;;17.54;56.03;100335.06;4998356;28;20187;-73
2021/05/12 07:56:38;;;;;;;9.80;8.00;;;;;;;17.42;56.38;100330.31;4989350;28;20042;-75
2021/05/12 07:59:03;;;;;;;8.48;7.60;;;;;;;17.26;56.91;100330.09;5004980;28;20041;-74
2021/05/12 08:01:33;;;;;;;8.30;7.50;;;;;;;17.27;57.11;100337.94;4990104;28;20539;-74
2021/05/12 08:03:58;;;;;;;9.00;8.13;;;;;;;17.40;56.78;100338.28;4990707;28;20133;-75
2021/05/12 08:06:24;;;;;;;8.88;7.97;;;;;;;17.50;56.35;100334.34;4991101;28;20061;-75
2021/05/12 08:08:50;;;;;;;9.15;8.32;;;;;;;17.48;56.59;100332.69;4984885;28;20534;-75
2021/05/12 08:11:15;;;;;;;9.10;8.10;;;;;;;17.50;56.73;100331.69;4989921;28;20033;-75
2021/05/12 08:13:41;;;;;;;8.60;7.78;;;;;;;17.59;56.39;100342.81;4994977;28;20841;-76
2021/05/12 08:16:07;;;;;;;7.95;7.15;;;;;;;17.57;56.43;100342.00;4988453;28;20042;-75
2021/05/12 08:18:32;;;;;;;8.32;7.20;;;;;;;17.60;56.75;100347.16;4977829;28;20050;-74
2021/05/12 08:21:00;;;;;;;9.60;8.70;;;;;;;17.51;56.89;100337.84;4990702;28;20049;-76
2021/05/12 08:23:25;;;;;;;7.75;7.03;;;;;;;17.53;56.96;100342.16;4984244;28;20077;-76
2021/05/12 08:25:51;;;;;;;7.13;6.43;;;;;;;17.56;57.02;100338.53;4999535;28;20484;-76
2021/05/12 08:28:18;;;;;;;7.70;6.63;;;;;;;17.60;57.01;100350.69;4991013;28;20198;-75
2021/05/12 08:30:47;;;;;;;7.38;6.75;;;;;;;17.73;56.51;100343.09;4997729;28;20128;-74
2021/05/12 08:33:17;;;;;;;7.20;6.55;;;;;;;17.71;56.40;100355.50;4993766;28;20045;-75
2021/05/12 08:35:45;;;;;;;6.63;6.03;;;;;;;17.74;55.95;100359.81;4992658;28;20129;-76
2021/05/12 08:38:16;;;;;;;8.55;7.07;;;;;;;17.79;55.94;100357.81;4994089;28;20048;-75
2021/05/12 08:40:43;;;;;;;7.07;6.47;;;;;;;17.56;56.35;100356.16;4999630;28;20562;-74
2021/05/12 08:43:11;;;;;;;6.40;5.82;;;;;;;17.70;56.02;100356.44;4998660;28;20053;-74
2021/05/12 08:45:38;;;;;;;6.18;5.57;;;;;;;17.77;56.10;100346.44;4996907;28;20095;-74
2021/05/12 08:48:10;;;;;;;6.28;5.78;;;;;;;17.74;55.87;100338.63;5006989;28;20679;-72
2021/05/12 08:50:37;;;;;;;6.53;5.93;;;;;;;17.66;56.15;100355.72;4983644;28;20057;-73
2021/05/12 08:53:03;;;;;;;6.30;5.80;;;;;;;17.63;56.11;100353.19;4997616;28;20300;-74
2021/05/12 08:55:32;;;;;;;6.53;6.03;;;;;;;17.76;55.67;100347.38;5005501;28;20977;-73
2021/05/12 08:57:59;;;;;;;6.95;6.05;;;;;;;17.80;55.91;100343.66;4986527;28;20080;-74
2021/05/12 09:00:24;;;;;;;6.15;5.25;;;;;;;17.86;55.46;100343.41;4975264;28;20042;-72
2021/05/12 09:02:51;;;;;;;6.03;5.30;;;;;;;17.69;55.84;100346.75;4998148;28;20046;-73
2021/05/12 09:05:19;;;;;;;6.70;5.93;;;;;;;17.65;55.89;100340.75;5003951;28;20525;-75
2021/05/12 09:07:46;;;;;;;6.35;5.78;;;;;;;17.99;55.12;100341.06;4990877;28;20048;-74
2021/05/12 09:10:12;;;;;;;3.95;3.65;;;;;;;18.34;53.55;100341.25;4998454;28;23716;-75
2021/05/12 09:12:51;;;;;;;4.47;4.18;;;;;;;18.54;52.96;100345.66;5006256;28;20049;-71
2021/05/12 09:15:23;;;;;;;5.30;3.53;;;;;;;18.64;52.68;100343.41;4995238;28;20049;-78
2021/05/12 09:17:51;;;;;;;3.70;3.40;;;;;;;18.72;52.49;100337.72;4995546;28;20045;-74
2021/05/12 09:20:19;;;;;;;2.28;2.10;;;;;;;18.73;52.33;100345.59;4988942;28;20121;-73
2021/05/12 09:23:12;;;;;;;3.17;2.42;;;;;;;18.81;52.01;100339.94;4994613;28;20037;-75
2021/05/12 09:25:40;;;;;;;2.38;2.28;;;;;;;18.78;52.13;100348.06;5000762;28;20711;-75
2021/05/12 09:28:17;;;;;;;2.30;2.00;;;;;;;18.76;52.58;100337.53;5000970;28;20395;-75
2021/05/12 09:30:49;;;;;;;2.25;1.63;;;;;;;18.89;51.78;100334.25;4990926;28;20504;-73
2021/05/12 09:33:30;;;;;;;1.33;1.33;;;;;;;18.96;51.80;100343.69;4985274;28;20038;-72
2021/05/12 09:35:56;;;;;;;2.55;1.40;;;;;;;19.01;51.33;100349.63;5010494;28;20124;-75
2021/05/12 09:38:25;;;;;;;1.55;1.20;;;;;;;19.06;51.23;100349.38;4989682;28;20045;-73
2021/05/12 09:41:09;;;;;;;0.60;0.60;;;;;;;19.10;51.41;100346.50;4996153;28;20472;-74
2021/05/12 09:43:47;;;;;;;1.58;0.75;;;;;;;19.13;51.22;100348.16;4978601;28;20319;-75
2021/05/12 09:46:23;;;;;;;1.40;1.27;;;;;;;19.10;51.15;100358.91;4986047;28;20046;-74
2021/05/12 09:49:08;;;;;;;2.10;0.60;;;;;;;19.08;51.67;100350.19;4998417;28;20053;-75
2021/05/12 09:51:48;;;;;;;1.13;0.90;;;;;;;19.22;51.16;100354.81;4974942;28;20076;-73
2021/05/12 09:54:21;;;;;;;1.58;0.60;;;;;;;19.29;51.00;100345.59;5009342;28;20080;-74
2021/05/12 09:56:51;;;;;;;1.40;0.70;;;;;;;19.34;50.68;100346.22;4997259;28;20033;-77
2021/05/12 09:59:29;;;;;;;0.93;0.90;;;;;;;19.38;50.64;100350.44;4995208;28;20093;-75
2021/05/12 10:01:55;;;;;;;1.33;0.55;;;;;;;19.22;51.47;100342.38;4983563;28;20076;-73
2021/05/12 10:04:39;;;;;;;1.05;1.05;;;;;;;19.29;50.97;100342.94;4993069;28;20079;-75
2021/05/12 10:07:21;;;;;;;0.70;0.70;;;;;;;19.33;50.70;100341.84;5014719;28;20045;-73
2021/05/12 10:09:52;;;;;;;1.40;0.50;;;;;;;19.31;51.07;100339.28;5017616;28;20537;-74
2021/05/12 10:12:24;;;;;;;2.03;0.98;;;;;;;19.34;50.81;100344.41;5015035;28;20072;-75
2021/05/12 10:14:56;;;;;;;0.90;0.60;;;;;;;19.31;51.31;100347.22;5014866;28;20943;-75
2021/05/12 10:17:22;;;;;;;1.27;0.77;;;;;;;19.19;51.22;100342.56;5024009;28;20629;-73
2021/05/12 10:19:49;;;;;;;2.08;0.60;;;;;;;19.21;51.73;100342.47;5019781;28;20068;-73
2021/05/12 10:22:16;;;;;;;0.93;0.93;;;;;;;19.33;51.28;100348.03;5009238;28;20049;-77
2021/05/12 10:24:45;;;;;;;0.52;0.52;;;;;;;19.37;50.58;100353.16;5013594;28;20517;-77
2021/05/12 10:27:31;;;;;;;0.63;0.63;;;;;;;19.38;50.58;100346.94;5014532;28;20746;-76
2021/05/12 10:29:58;;;;;;;0.73;0.60;;;;;;;19.43;50.66;100344.91;5025057;28;20060;-72
2021/05/12 10:32:29;;;;;;;0.90;0.70;;;;;;;19.47;50.33;100351.78;5029746;28;20053;-76
2021/05/12 10:35:06;;;;;;;0.43;0.43;;;;;;;19.45;50.63;100358.94;5026268;28;20534;-78
2021/05/12 10:37:36;;;;;;;0.50;0.50;;;;;;;19.45;50.59;100364.25;5014207;28;20041;-76
2021/05/12 10:40:16;;;;;;;1.60;0.57;;;;;;;19.48;50.47;100354.34;5029933;28;20049;-76
2021/05/12 10:45:47;;;;;;;0.75;0.63;;;;;;;19.43;50.62;100360.81;5020195;28;20144;-77
2021/05/12 10:48:39;;;;;;;0.52;0.52;;;;;;;19.41;50.76;100355.59;5011301;28;20048;-77
2021/05/12 10:51:31;;;;;;;0.73;0.70;;;;;;;19.40;50.70;100359.19;5029026;28;20079;-77
2021/05/12 10:54:03;;;;;;;0.75;0.75;;;;;;;19.55;50.22;100348.72;5017170;28;20044;-75
2021/05/12 10:56:42;;;;;;;0.52;0.52;;;;;;;19.57;50.31;100349.47;5025376;28;20045;-74
2021/05/12 10:59:10;;;;;;;0.65;0.57;;;;;;;19.59;50.38;100352.94;5017471;28;20040;-73
2021/05/12 11:01:42;;;;;;;1.77;0.80;;;;;;;19.63;50.06;100349.19;5023949;28;20060;-77
2021/05/12 11:04:12;;;;;;;0.60;0.30;;;;;;;19.71;49.93;100346.13;5013766;28;20134;-76
2021/05/12 11:06:37;;;;;;;0.60;0.60;;;;;;;19.73;49.81;100347.75;5015376;28;20098;-74
2021/05/12 11:09:12;;;;;;;0.55;0.55;;;;;;;19.74;49.75;100348.63;5009462;28;20077;-74
2021/05/12 11:11:44;;;;;;;0.75;0.57;;;;;;;19.73;49.92;100352.22;5014392;28;20072;-75
2021/05/12 11:14:20;;;;;;;0.70;0.70;;;;;;;19.71;49.70;100357.63;5007820;28;20235;-76
2021/05/12 11:17:17;;;;;;;0.63;0.63;;;;;;;19.77;49.62;100367.91;5012730;28;20032;-73
2021/05/12 11:22:43;;;;;;;0.47;0.47;;;;;;;19.89;49.54;100360.28;5008050;28;20048;-76
2021/05/12 11:25:16;;;;;;;0.60;0.45;;;;;;;19.86;49.48;100355.97;5020163;28;20083;-73
2021/05/12 11:28:14;;;;;;;0.80;0.60;;;;;;;19.88;49.42;100362.09;5009782;28;20515;-74
2021/05/12 11:33:30;;;;;;;0.75;0.60;;;;;;;19.98;49.03;100360.63;5021587;28;20065;-74